createdAt,value
2023-05-15T00:00:16.735Z,23.77
2023-05-15T00:02:47.275Z,19.90
2023-05-15T00:05:16.442Z,25.20
2023-05-15T00:07:45.871Z,20.83
2023-05-15T00:10:15.365Z,18.87
2023-05-15T00:12:44.440Z,18.47
2023-05-15T00:15:13.958Z,14.47
2023-05-15T00:17:42.902Z,16.93
2023-05-15T00:20:14.189Z,17.03
2023-05-15T00:22:43.040Z,15.00
2023-05-15T00:25:12.150Z,17.37
2023-05-15T00:27:41.088Z,18.20
2023-05-15T00:30:11.617Z,18.10
2023-05-15T00:32:41.528Z,17.97
2023-05-15T00:35:11.946Z,16.17
2023-05-15T00:37:40.924Z,17.57
2023-05-15T00:40:14.240Z,16.53
2023-05-15T00:42:44.365Z,17.20
2023-05-15T00:45:14.176Z,18.10
2023-05-15T00:47:44.109Z,17.73
2023-05-15T00:50:14.936Z,19.73
2023-05-15T00:52:45.189Z,18.27
2023-05-15T00:55:14.366Z,17.90
2023-05-15T00:57:45.487Z,18.23
2023-05-15T01:00:18.545Z,21.43
2023-05-15T01:02:48.065Z,16.73
2023-05-15T01:05:19.105Z,19.40
2023-05-15T01:07:53.949Z,19.00
2023-05-15T01:10:24.011Z,18.33
2023-05-15T01:12:56.868Z,18.63
2023-05-15T01:15:27.552Z,17.73
2023-05-15T01:17:56.884Z,18.77
2023-05-15T01:20:29.381Z,20.20
2023-05-15T01:23:12.924Z,22.00
2023-05-15T01:26:25.382Z,19.67
2023-05-15T01:29:01.198Z,19.63
2023-05-15T01:31:36.272Z,20.83
2023-05-15T01:34:09.593Z,18.23
2023-05-15T01:36:44.466Z,21.57
2023-05-15T01:39:17.345Z,21.03
2023-05-15T01:41:56.394Z,18.80
2023-05-15T01:44:32.082Z,19.40
2023-05-15T01:47:08.689Z,21.00
2023-05-15T01:49:39.717Z,18.67
2023-05-15T01:52:14.902Z,18.60
2023-05-15T01:54:45.099Z,17.85
2023-05-15T01:57:15.818Z,21.63
2023-05-15T01:59:47.331Z,19.87
2023-05-15T02:02:17.287Z,21.27
2023-05-15T02:04:48.066Z,19.10
2023-05-15T02:07:17.958Z,19.23
2023-05-15T02:09:48.094Z,19.10
2023-05-15T02:12:18.692Z,18.98
2023-05-15T02:14:51.635Z,20.35
2023-05-15T02:17:24.025Z,18.00
2023-05-15T02:19:53.560Z,17.57
2023-05-15T02:22:22.848Z,18.27
2023-05-15T02:24:52.115Z,19.40
2023-05-15T02:27:26.494Z,20.20
2023-05-15T02:30:10.204Z,22.20
2023-05-15T02:32:51.447Z,18.88
2023-05-15T02:35:28.535Z,17.60
2023-05-15T02:38:02.139Z,17.95
2023-05-15T02:40:33.368Z,22.57
2023-05-15T02:43:03.463Z,18.90
2023-05-15T02:45:35.800Z,23.67
2023-05-15T02:48:06.665Z,19.00
2023-05-15T02:50:36.057Z,18.98
2023-05-15T02:53:05.346Z,21.20
2023-05-15T02:55:34.670Z,19.40
2023-05-15T02:58:05.048Z,21.52
2023-05-15T03:00:35.919Z,20.30
2023-05-15T03:03:05.476Z,19.97
2023-05-15T03:05:35.295Z,20.07
2023-05-15T03:08:04.895Z,19.37
2023-05-15T03:10:34.023Z,20.33
2023-05-15T03:13:03.705Z,20.80
2023-05-15T03:15:34.440Z,24.07
2023-05-15T03:18:03.901Z,20.17
2023-05-15T03:20:33.085Z,18.43
2023-05-15T03:23:02.576Z,19.92
2023-05-15T03:25:32.139Z,24.17
2023-05-15T03:28:01.500Z,19.25
2023-05-15T03:30:30.779Z,19.13
2023-05-15T03:33:03.971Z,19.95
2023-05-15T03:35:33.552Z,19.17
2023-05-15T03:38:02.784Z,19.08
2023-05-15T03:40:32.111Z,18.10
2023-05-15T03:43:01.217Z,17.97
2023-05-15T03:45:30.761Z,22.17
2023-05-15T03:48:01.615Z,19.40
2023-05-15T03:50:30.948Z,18.23
2023-05-15T03:53:01.819Z,17.67
2023-05-15T03:55:31.119Z,18.45
2023-05-15T03:58:01.124Z,16.73
2023-05-15T04:00:30.446Z,18.58
2023-05-15T04:03:01.058Z,17.10
2023-05-15T04:05:31.223Z,18.07
2023-05-15T04:08:03.223Z,16.70
2023-05-15T04:10:34.016Z,17.37
2023-05-15T04:13:03.237Z,18.93
2023-05-15T04:15:32.776Z,15.10
2023-05-15T04:18:03.391Z,16.47
2023-05-15T04:20:33.886Z,19.73
2023-05-15T04:23:04.318Z,17.47
2023-05-15T04:25:33.594Z,24.33
2023-05-15T04:28:02.856Z,18.23
2023-05-15T04:30:32.344Z,15.20
2023-05-15T04:33:03.126Z,15.30
2023-05-15T04:35:32.784Z,17.10
2023-05-15T04:38:02.627Z,16.17
2023-05-15T04:40:32.500Z,29.60
2023-05-15T04:43:04.143Z,22.93
2023-05-15T04:45:33.731Z,16.33
2023-05-15T04:48:04.550Z,16.70
2023-05-15T04:50:33.750Z,15.73
2023-05-15T04:53:03.877Z,18.97
2023-05-15T04:55:33.764Z,20.73
2023-05-15T04:58:02.922Z,19.77
2023-05-15T05:00:32.093Z,20.50
2023-05-15T05:03:04.996Z,23.03
2023-05-15T05:05:34.141Z,18.60
2023-05-15T05:08:03.194Z,21.37
2023-05-15T05:10:32.260Z,14.63
2023-05-15T05:13:01.442Z,18.60
2023-05-15T05:15:30.904Z,16.70
2023-05-15T05:18:00.224Z,21.20
2023-05-15T05:20:31.660Z,13.50
2023-05-15T05:23:01.022Z,14.60
2023-05-15T05:25:32.147Z,16.20
2023-05-15T05:28:01.566Z,14.90
2023-05-15T05:30:31.045Z,15.67
2023-05-15T05:33:00.256Z,16.67
2023-05-15T05:35:31.287Z,15.90
2023-05-15T05:38:01.505Z,14.37
2023-05-15T05:40:30.818Z,13.57
2023-05-15T05:43:02.081Z,17.90
2023-05-15T05:45:31.693Z,15.53
2023-05-15T05:48:00.731Z,16.43
2023-05-15T05:50:31.530Z,15.40
2023-05-15T05:53:00.671Z,23.70
2023-05-15T05:55:29.906Z,15.30
2023-05-15T05:57:59.110Z,20.30
2023-05-15T06:00:28.971Z,17.67
2023-05-15T06:03:03.411Z,16.70
2023-05-15T06:05:34.364Z,16.17
2023-05-15T06:08:04.478Z,16.60
2023-05-15T06:10:33.713Z,15.70
2023-05-15T06:13:02.996Z,15.90
2023-05-15T06:15:33.144Z,13.77
2023-05-15T06:18:02.422Z,20.63
2023-05-15T06:20:32.979Z,15.80
2023-05-15T06:23:02.094Z,15.07
2023-05-15T06:25:32.965Z,15.33
2023-05-15T06:28:02.454Z,13.07
2023-05-15T06:30:31.534Z,14.40
2023-05-15T06:33:00.803Z,13.70
2023-05-15T06:35:30.705Z,15.00
2023-05-15T06:38:02.158Z,16.93
2023-05-15T06:40:31.642Z,17.90
2023-05-15T06:43:00.948Z,17.17
2023-05-15T06:45:30.198Z,16.07
2023-05-15T06:48:01.663Z,14.03
2023-05-15T06:50:31.321Z,14.03
2023-05-15T06:53:05.674Z,15.30
2023-05-15T06:55:36.903Z,14.63
2023-05-15T06:58:08.200Z,16.97
2023-05-15T07:00:37.980Z,20.30
2023-05-15T07:03:07.226Z,14.97
2023-05-15T07:05:36.300Z,20.13
2023-05-15T07:08:07.277Z,20.07
2023-05-15T07:10:36.460Z,20.20
2023-05-15T07:13:05.530Z,12.73
2023-05-15T07:15:36.233Z,15.37
2023-05-15T07:18:06.188Z,17.73
2023-05-15T07:20:36.061Z,15.40
2023-05-15T07:23:07.721Z,20.03
2023-05-15T07:25:37.099Z,13.27
2023-05-15T07:28:07.155Z,14.30
2023-05-15T07:30:36.414Z,13.77
2023-05-15T07:33:06.504Z,18.27
2023-05-15T07:35:36.017Z,15.77
2023-05-15T07:38:06.715Z,12.07
2023-05-15T07:40:38.696Z,18.27
2023-05-15T07:46:30.738Z,11.17
2023-05-15T07:48:59.870Z,12.10
2023-05-15T07:51:29.047Z,12.53
2023-05-15T07:53:58.331Z,12.03
2023-05-15T07:56:28.721Z,13.93
2023-05-15T07:59:02.114Z,14.83
2023-05-15T08:01:33.020Z,13.67
2023-05-15T08:04:02.651Z,11.77
2023-05-15T08:06:33.153Z,12.20
2023-05-15T08:09:02.407Z,11.70
2023-05-15T08:11:31.677Z,12.83
2023-05-15T08:14:00.892Z,11.30
2023-05-15T08:16:31.585Z,12.53
2023-05-15T08:19:03.731Z,12.33
2023-05-15T08:21:33.004Z,16.50
2023-05-15T08:24:02.458Z,10.33
2023-05-15T08:26:31.578Z,10.40
2023-05-15T08:29:00.815Z,12.73
2023-05-15T08:31:31.403Z,10.57
2023-05-15T08:34:00.472Z,10.47
2023-05-15T08:36:29.609Z,9.83
2023-05-15T08:38:58.994Z,10.40
2023-05-15T08:44:08.354Z,12.50
2023-05-15T08:46:39.011Z,11.63
2023-05-15T08:49:16.575Z,11.30
2023-05-15T08:51:45.958Z,10.53
2023-05-15T08:54:15.692Z,10.97
2023-05-15T08:56:44.870Z,8.93
2023-05-15T08:59:13.951Z,12.13
2023-05-15T09:01:45.302Z,10.53
2023-05-15T09:04:27.198Z,11.60
2023-05-15T09:06:57.166Z,18.77
2023-05-15T09:09:26.480Z,11.80
2023-05-15T09:11:56.892Z,9.83
2023-05-15T09:14:25.871Z,16.50
2023-05-15T09:16:56.761Z,12.47
2023-05-15T09:19:26.133Z,15.03
2023-05-15T09:21:55.294Z,11.07
2023-05-15T09:24:28.345Z,11.90
2023-05-15T09:27:04.973Z,11.17
2023-05-15T09:29:35.258Z,13.30
2023-05-15T09:32:10.110Z,18.87
2023-05-15T09:34:40.750Z,12.50
2023-05-15T09:37:12.120Z,12.43
2023-05-15T09:39:43.613Z,11.17
2023-05-15T09:42:14.147Z,8.90
2023-05-15T09:44:44.553Z,10.20
2023-05-15T09:47:16.964Z,10.63
2023-05-15T09:49:46.975Z,9.53
2023-05-15T09:52:18.030Z,10.03
2023-05-15T09:54:50.216Z,15.90
2023-05-15T09:57:24.415Z,13.40
2023-05-15T09:59:53.435Z,8.30
2023-05-15T10:02:32.404Z,11.40
2023-05-15T10:05:02.255Z,9.30
2023-05-15T10:07:31.712Z,8.43
2023-05-15T10:10:01.410Z,7.83
2023-05-15T10:12:32.376Z,7.93
2023-05-15T10:15:02.863Z,7.50
2023-05-15T10:17:36.101Z,9.70
2023-05-15T10:20:07.174Z,12.80
2023-05-15T10:22:42.180Z,12.40
2023-05-15T10:25:19.846Z,7.63
2023-05-15T10:27:51.338Z,7.90
2023-05-15T10:30:22.591Z,8.20
2023-05-15T10:32:53.878Z,7.77
2023-05-15T10:35:24.313Z,8.50
2023-05-15T10:37:53.653Z,9.57
2023-05-15T10:40:22.852Z,8.60
2023-05-15T10:42:52.424Z,7.47
2023-05-15T10:45:21.959Z,8.43
2023-05-15T10:47:53.685Z,8.57
2023-05-15T10:50:23.066Z,8.27
2023-05-15T10:52:53.676Z,7.70
2023-05-15T10:55:23.881Z,6.23
2023-05-15T10:57:53.799Z,8.47
2023-05-15T11:00:32.678Z,7.97
2023-05-15T11:03:03.498Z,6.20
2023-05-15T11:06:08.868Z,6.53
2023-05-15T11:08:38.384Z,6.67
2023-05-15T11:11:07.810Z,7.83
2023-05-15T11:14:06.454Z,6.73
2023-05-15T11:17:04.577Z,7.83
2023-05-15T11:19:39.812Z,6.87
2023-05-15T11:22:23.088Z,6.60
2023-05-15T11:24:54.138Z,4.93
2023-05-15T11:27:25.188Z,5.20
2023-05-15T11:30:08.418Z,9.00
2023-05-15T11:32:52.014Z,5.60
2023-05-15T11:35:25.028Z,6.47
2023-05-15T11:37:56.578Z,6.63
2023-05-15T11:40:27.689Z,7.53
2023-05-15T11:43:18.290Z,6.27
2023-05-15T11:45:49.859Z,6.37
2023-05-15T11:48:20.816Z,6.23
2023-05-15T11:50:53.903Z,6.30
2023-05-15T11:53:24.272Z,7.47
2023-05-15T11:55:54.926Z,9.10
2023-05-15T11:58:25.268Z,7.93
2023-05-15T12:00:55.578Z,7.90
2023-05-15T12:07:27.611Z,6.03
2023-05-15T12:09:56.680Z,4.90
2023-05-15T12:12:27.763Z,8.30
2023-05-15T12:15:00.119Z,5.03
2023-05-15T12:17:29.447Z,5.13
2023-05-15T12:20:01.053Z,6.17
2023-05-15T12:22:36.936Z,4.60
2023-05-15T12:25:07.936Z,4.47
2023-05-15T12:27:37.755Z,3.30
2023-05-15T12:30:08.230Z,5.43
2023-05-15T12:32:39.113Z,6.23
2023-05-15T12:35:08.822Z,6.00
2023-05-15T12:37:40.026Z,6.03
2023-05-15T12:40:12.271Z,5.50
2023-05-15T12:42:42.971Z,5.10
2023-05-15T12:45:15.963Z,5.93
2023-05-15T12:47:46.580Z,5.93
2023-05-15T12:50:24.251Z,5.60
2023-05-15T12:52:56.111Z,4.37
2023-05-15T12:55:27.303Z,4.30
2023-05-15T12:57:59.088Z,5.10
2023-05-15T13:00:29.981Z,4.70
2023-05-15T13:03:00.125Z,5.60
2023-05-15T13:05:29.906Z,4.37
2023-05-15T13:08:02.796Z,4.27
2023-05-15T13:10:34.852Z,4.27
2023-05-15T13:13:04.249Z,4.00
2023-05-15T13:15:35.385Z,8.93
2023-05-15T13:18:06.722Z,4.43
2023-05-15T13:20:37.692Z,6.97
2023-05-15T13:23:09.345Z,5.07
2023-05-15T13:25:38.629Z,5.87
2023-05-15T13:28:11.746Z,4.57
2023-05-15T13:30:42.533Z,6.07
2023-05-15T13:33:12.972Z,3.30
2023-05-15T13:35:43.762Z,7.17
2023-05-15T13:38:14.199Z,6.20
2023-05-15T13:40:43.199Z,12.73
2023-05-15T13:43:12.328Z,13.40
2023-05-15T13:45:41.314Z,3.30
2023-05-15T13:48:10.470Z,3.33
2023-05-15T13:50:39.658Z,2.80
2023-05-15T13:53:08.716Z,2.33
2023-05-15T13:55:39.092Z,3.93
2023-05-15T13:58:08.378Z,3.93
2023-05-15T14:00:37.648Z,3.87
2023-05-15T14:03:06.839Z,2.30
2023-05-15T14:05:36.055Z,4.33
2023-05-15T14:08:05.238Z,4.50
2023-05-15T14:10:34.269Z,3.57
2023-05-15T14:13:04.758Z,3.77
2023-05-15T14:15:33.799Z,3.63
2023-05-15T14:18:03.303Z,4.73
2023-05-15T14:20:32.368Z,7.10
2023-05-15T14:23:01.399Z,3.77
2023-05-15T14:25:30.446Z,5.60
2023-05-15T14:27:59.555Z,4.57
2023-05-15T14:30:30.127Z,4.50
2023-05-15T14:32:59.246Z,4.10
2023-05-15T14:35:28.312Z,4.50
2023-05-15T14:37:58.067Z,3.70
2023-05-15T14:40:27.387Z,4.90
2023-05-15T14:42:56.602Z,4.50
2023-05-15T14:45:26.026Z,4.40
2023-05-15T14:47:56.766Z,5.37
2023-05-15T14:50:26.141Z,4.80
2023-05-15T14:52:55.543Z,7.77
2023-05-15T14:55:24.650Z,6.13
2023-05-15T14:57:53.729Z,4.33
2023-05-15T15:00:22.944Z,4.13
2023-05-15T15:02:52.083Z,4.90
2023-05-15T15:05:22.752Z,4.33
2023-05-15T15:08:05.380Z,4.63
2023-05-15T15:10:36.267Z,3.40
2023-05-15T15:13:06.203Z,3.80
2023-05-15T15:15:38.044Z,3.67
2023-05-15T15:18:07.809Z,4.13
2023-05-15T15:20:38.528Z,3.50
2023-05-15T15:23:07.693Z,4.30
2023-05-15T15:25:36.732Z,4.50
2023-05-15T15:28:05.939Z,4.17
2023-05-15T15:30:34.897Z,3.80
2023-05-15T15:33:04.274Z,4.13
2023-05-15T15:35:33.342Z,4.10
2023-05-15T15:38:03.829Z,7.10
2023-05-15T15:40:36.047Z,5.40
2023-05-15T15:43:05.118Z,2.90
2023-05-15T15:45:34.211Z,3.93
2023-05-15T15:48:03.516Z,3.60
2023-05-15T15:50:32.668Z,3.80
2023-05-15T15:53:03.350Z,4.47
2023-05-15T15:55:32.408Z,3.37
2023-05-15T15:58:01.336Z,3.80
2023-05-15T16:00:38.564Z,2.80
2023-05-15T16:03:08.005Z,4.00
2023-05-15T16:05:37.290Z,4.67
2023-05-15T16:08:07.849Z,3.77
2023-05-15T16:10:40.379Z,3.23
2023-05-15T16:13:09.555Z,3.33
2023-05-15T16:15:38.650Z,3.53
2023-05-15T16:18:08.099Z,3.77
2023-05-15T16:20:37.058Z,4.13
2023-05-15T16:23:09.365Z,3.40
2023-05-15T16:25:39.062Z,4.90
2023-05-15T16:28:10.015Z,6.57
2023-05-15T16:30:48.843Z,5.43
2023-05-15T16:33:19.023Z,5.23
2023-05-15T16:35:48.998Z,4.07
2023-05-15T16:38:19.839Z,4.00
2023-05-15T16:40:52.628Z,5.20
2023-05-15T16:43:22.089Z,4.20
2023-05-15T16:45:51.544Z,4.20
2023-05-15T16:48:20.693Z,7.47
2023-05-15T16:50:50.503Z,4.17
2023-05-15T16:53:22.810Z,4.63
2023-05-15T16:55:54.307Z,4.53
2023-05-15T16:58:23.453Z,7.50
2023-05-15T17:00:52.578Z,6.23
2023-05-15T17:03:21.751Z,5.23
2023-05-15T17:05:51.500Z,4.93
2023-05-15T17:08:24.116Z,6.77
2023-05-15T17:10:53.109Z,3.93
2023-05-15T17:13:22.110Z,6.20
2023-05-15T17:15:51.365Z,4.70
2023-05-15T17:18:20.613Z,3.97
2023-05-15T17:20:49.592Z,4.17
2023-05-15T17:23:18.949Z,4.93
2023-05-15T17:25:50.112Z,5.10
2023-05-15T17:28:19.354Z,8.67
2023-05-15T17:30:48.286Z,6.73
2023-05-15T17:33:17.579Z,5.30
2023-05-15T17:35:46.776Z,6.87
2023-05-15T17:38:15.899Z,5.73
2023-05-15T17:40:44.861Z,4.80
2023-05-15T17:43:15.417Z,4.70
2023-05-15T17:45:44.444Z,4.20
2023-05-15T17:48:13.464Z,6.43
2023-05-15T17:50:42.511Z,4.90
2023-05-15T17:53:11.511Z,4.67
2023-05-15T17:55:40.579Z,6.07
2023-05-15T17:58:09.619Z,7.23
2023-05-15T18:00:40.235Z,4.80
2023-05-15T18:03:09.368Z,4.60
2023-05-15T18:05:38.498Z,8.13
2023-05-15T18:08:07.666Z,5.13
2023-05-15T18:10:36.618Z,6.60
2023-05-15T18:13:05.726Z,10.73
2023-05-15T18:15:35.348Z,5.50
2023-05-15T18:18:06.319Z,6.63
2023-05-15T18:20:35.516Z,6.93
2023-05-15T18:23:04.467Z,5.67
2023-05-15T18:25:36.912Z,6.07
2023-05-15T18:28:06.028Z,5.07
2023-05-15T18:30:35.948Z,5.10
2023-05-15T18:33:06.428Z,5.40
2023-05-15T18:35:36.420Z,5.87
2023-05-15T18:38:05.376Z,5.00
2023-05-15T18:40:34.539Z,5.37
2023-05-15T18:43:03.497Z,6.03
2023-05-15T18:45:32.823Z,6.07
2023-05-15T18:48:01.842Z,5.20
2023-05-15T18:50:32.346Z,5.40
2023-05-15T18:53:01.464Z,6.60
2023-05-15T18:55:31.111Z,5.53
2023-05-15T18:58:00.333Z,5.80
2023-05-15T19:00:37.846Z,5.77
2023-05-15T19:03:09.961Z,5.17
2023-05-15T19:05:40.701Z,5.77
2023-05-15T19:08:09.737Z,5.47
2023-05-15T19:10:38.624Z,5.40
2023-05-15T19:13:07.692Z,5.47
2023-05-15T19:15:36.719Z,5.87
2023-05-15T19:18:06.703Z,11.63
2023-05-15T19:20:36.387Z,6.00
2023-05-15T19:23:08.807Z,6.60
2023-05-15T19:25:38.498Z,5.73
2023-05-15T19:28:08.581Z,8.83
2023-05-15T19:30:38.491Z,7.37
2023-05-15T19:33:08.227Z,6.17
2023-05-15T19:35:38.099Z,9.47
2023-05-15T19:38:08.836Z,10.77
2023-05-15T19:40:38.196Z,8.27
2023-05-15T19:43:07.262Z,7.33
2023-05-15T19:45:36.248Z,7.20
2023-05-15T19:48:05.666Z,7.20
2023-05-15T19:50:34.796Z,8.10
2023-05-15T19:53:03.870Z,6.13
2023-05-15T19:55:34.431Z,14.10
2023-05-15T19:58:03.821Z,10.47
2023-05-15T20:00:33.046Z,8.07
2023-05-15T20:03:02.116Z,6.33
2023-05-15T20:05:31.269Z,9.30
2023-05-15T20:08:00.426Z,11.50
2023-05-15T20:10:29.462Z,9.27
2023-05-15T20:13:00.515Z,10.30
2023-05-15T20:15:31.636Z,6.50
2023-05-15T20:18:01.306Z,8.80
2023-05-15T20:20:30.340Z,7.63
2023-05-15T20:22:59.675Z,9.80
2023-05-15T20:25:29.287Z,8.83
2023-05-15T20:28:00.907Z,8.03
2023-05-15T20:30:30.131Z,9.13
2023-05-15T20:32:59.312Z,6.60
2023-05-15T20:35:31.208Z,11.13
2023-05-15T20:38:00.256Z,7.63
2023-05-15T20:40:29.410Z,5.80
2023-05-15T20:43:01.392Z,9.27
2023-05-15T20:45:32.241Z,7.73
2023-05-15T20:48:01.541Z,6.97
2023-05-15T20:50:32.715Z,8.10
2023-05-15T20:53:01.744Z,8.93
2023-05-15T20:55:30.752Z,7.70
2023-05-15T20:58:01.485Z,7.10
2023-05-15T21:00:31.034Z,5.93
2023-05-15T21:03:00.242Z,6.97
2023-05-15T21:05:30.399Z,6.37
2023-05-15T21:07:59.788Z,8.10
2023-05-15T21:10:28.854Z,6.20
2023-05-15T21:12:59.620Z,6.67
2023-05-15T21:15:30.248Z,7.80
2023-05-15T21:17:59.245Z,7.73
2023-05-15T21:20:41.420Z,6.60
2023-05-15T21:23:10.688Z,6.97
2023-05-15T21:25:40.270Z,8.77
2023-05-15T21:28:09.339Z,7.83
2023-05-15T21:30:39.715Z,10.83
2023-05-15T21:33:08.870Z,6.83
2023-05-15T21:35:38.147Z,9.23
2023-05-15T21:38:07.612Z,6.80
2023-05-15T21:40:36.632Z,9.20
2023-05-15T21:43:05.863Z,8.13
2023-05-15T21:45:34.917Z,6.90
2023-05-15T21:48:05.597Z,8.93
2023-05-15T21:50:35.130Z,6.20
2023-05-15T21:53:04.477Z,8.20
2023-05-15T21:55:33.645Z,10.60
2023-05-15T21:58:02.620Z,8.93
2023-05-15T22:00:31.759Z,11.13
2023-05-15T22:03:00.907Z,8.70
2023-05-15T22:05:31.333Z,8.20
2023-05-15T22:08:00.493Z,8.13
2023-05-15T22:10:29.576Z,13.17
2023-05-15T22:13:02.663Z,15.37
2023-05-15T22:15:31.952Z,9.37
2023-05-15T22:18:02.127Z,10.00
2023-05-15T22:20:32.848Z,9.50
2023-05-15T22:23:02.215Z,8.57
2023-05-15T22:25:31.533Z,9.90
2023-05-15T22:28:00.600Z,8.60
2023-05-15T22:30:29.686Z,9.80
2023-05-15T22:32:58.947Z,9.70
2023-05-15T22:35:28.623Z,8.30
2023-05-15T22:37:59.158Z,9.57
2023-05-15T22:40:28.509Z,10.27
2023-05-15T22:42:57.824Z,8.83
2023-05-15T22:45:26.934Z,9.97
2023-05-15T22:47:56.213Z,8.60
2023-05-15T22:50:25.522Z,12.20
2023-05-15T22:52:54.643Z,9.10
2023-05-15T22:55:25.796Z,9.03
2023-05-15T22:57:56.922Z,10.30
2023-05-15T23:00:27.918Z,11.50
2023-05-15T23:03:04.664Z,10.70
2023-05-15T23:05:36.313Z,9.07
2023-05-15T23:08:07.506Z,10.90
2023-05-15T23:10:42.548Z,10.60
2023-05-15T23:13:18.644Z,9.40
2023-05-15T23:15:54.484Z,11.93
2023-05-15T23:18:23.623Z,9.70
2023-05-15T23:20:53.012Z,10.90
2023-05-15T23:23:22.123Z,10.90
2023-05-15T23:25:52.759Z,10.73
2023-05-15T23:28:21.889Z,14.07
2023-05-15T23:30:53.304Z,12.03
2023-05-15T23:33:22.737Z,10.80
2023-05-15T23:35:52.445Z,11.57
2023-05-15T23:38:23.492Z,11.10
2023-05-15T23:40:54.075Z,11.73
2023-05-15T23:43:23.450Z,13.00
2023-05-15T23:45:52.442Z,13.60
2023-05-15T23:48:21.481Z,10.43
2023-05-15T23:50:51.584Z,11.30
2023-05-15T23:53:20.783Z,12.23
2023-05-15T23:55:49.916Z,14.30
2023-05-15T23:58:20.352Z,13.43
